sensor_id;sensor_type;location;lat;lon;timestamp;pressure;altitude;pressure_sealevel;temperature;humidity
72262;BME280;60173;52.112;8.648;2023-04-20T00:02:01;101059.94;;;7.29;55.56
72262;BME280;60173;52.112;8.648;2023-04-20T00:04:28;101063.59;;;7.07;56.20
72262;BME280;60173;52.112;8.648;2023-04-20T00:06:54;101059.69;;;7.30;56.08
72262;BME280;60173;52.112;8.648;2023-04-20T00:09:21;101060.91;;;7.07;57.39
72262;BME280;60173;52.112;8.648;2023-04-20T00:11:48;101056.53;;;7.01;57.95
72262;BME280;60173;52.112;8.648;2023-04-20T00:14:15;101048.88;;;6.88;58.59
72262;BME280;60173;52.112;8.648;2023-04-20T00:16:41;101034.44;;;7.09;58.79
72262;BME280;60173;52.112;8.648;2023-04-20T00:19:07;101032.81;;;7.08;59.10
72262;BME280;60173;52.112;8.648;2023-04-20T00:21:34;101035.94;;;6.90;59.79
72262;BME280;60173;52.112;8.648;2023-04-20T00:24:00;101044.09;;;7.00;60.24
72262;BME280;60173;52.112;8.648;2023-04-20T00:26:27;101041.81;;;6.82;61.05
72262;BME280;60173;52.112;8.648;2023-04-20T00:28:53;101041.81;;;6.82;61.47
72262;BME280;60173;52.112;8.648;2023-04-20T00:31:19;101035.66;;;6.91;62.26
72262;BME280;60173;52.112;8.648;2023-04-20T00:33:46;101030.94;;;6.71;63.29
72262;BME280;60173;52.112;8.648;2023-04-20T00:36:13;101055.69;;;6.63;64.68
72262;BME280;60173;52.112;8.648;2023-04-20T00:38:40;101028.03;;;6.46;65.93
72262;BME280;60173;52.112;8.648;2023-04-20T00:41:06;101037.31;;;6.28;67.46
72262;BME280;60173;52.112;8.648;2023-04-20T00:43:32;101034.75;;;6.16;68.10
72262;BME280;60173;52.112;8.648;2023-04-20T00:45:59;101029.91;;;6.18;68.95
72262;BME280;60173;52.112;8.648;2023-04-20T00:48:25;101028.09;;;5.97;69.77
72262;BME280;60173;52.112;8.648;2023-04-20T00:50:51;101028.19;;;6.07;69.79
72262;BME280;60173;52.112;8.648;2023-04-20T00:53:18;101015.03;;;6.10;69.72
72262;BME280;60173;52.112;8.648;2023-04-20T00:55:44;101019.50;;;6.00;70.39
72262;BME280;60173;52.112;8.648;2023-04-20T00:58:11;101018.28;;;5.91;70.62
72262;BME280;60173;52.112;8.648;2023-04-20T01:00:38;101011.91;;;5.97;70.79
72262;BME280;60173;52.112;8.648;2023-04-20T01:03:06;101011.97;;;6.02;70.66
72262;BME280;60173;52.112;8.648;2023-04-20T01:05:33;101016.09;;;5.87;70.72
72262;BME280;60173;52.112;8.648;2023-04-20T01:07:59;101012.19;;;5.78;71.09
72262;BME280;60173;52.112;8.648;2023-04-20T01:10:25;101005.31;;;5.87;71.04
72262;BME280;60173;52.112;8.648;2023-04-20T01:12:52;101006.41;;;5.92;70.88
72262;BME280;60173;52.112;8.648;2023-04-20T01:15:18;101004.22;;;5.88;70.73
72262;BME280;60173;52.112;8.648;2023-04-20T01:17:44;101009.06;;;5.86;71.05
72262;BME280;60173;52.112;8.648;2023-04-20T01:20:11;100998.78;;;5.83;71.04
72262;BME280;60173;52.112;8.648;2023-04-20T01:22:48;101001.41;;;5.78;71.54
72262;BME280;60173;52.112;8.648;2023-04-20T01:25:15;101003.06;;;5.79;71.39
72262;BME280;60173;52.112;8.648;2023-04-20T01:27:42;100991.78;;;5.82;71.66
72262;BME280;60173;52.112;8.648;2023-04-20T01:30:09;100996.03;;;5.78;71.53
72262;BME280;60173;52.112;8.648;2023-04-20T01:32:36;100986.06;;;5.79;72.35
72262;BME280;60173;52.112;8.648;2023-04-20T01:35:02;100982.31;;;5.80;71.85
72262;BME280;60173;52.112;8.648;2023-04-20T01:37:29;100981.38;;;5.69;72.22
72262;BME280;60173;52.112;8.648;2023-04-20T01:39:56;100977.94;;;5.74;72.04
72262;BME280;60173;52.112;8.648;2023-04-20T01:42:22;100985.75;;;5.75;72.23
72262;BME280;60173;52.112;8.648;2023-04-20T01:44:49;100994.31;;;5.67;72.45
72262;BME280;60173;52.112;8.648;2023-04-20T01:47:15;100979.75;;;5.68;72.59
72262;BME280;60173;52.112;8.648;2023-04-20T01:49:41;100970.66;;;5.74;72.98
72262;BME280;60173;52.112;8.648;2023-04-20T01:52:08;100970.22;;;5.60;72.84
72262;BME280;60173;52.112;8.648;2023-04-20T01:54:34;100968.41;;;5.66;72.74
72262;BME280;60173;52.112;8.648;2023-04-20T01:57:01;100973.22;;;5.64;72.90
72262;BME280;60173;52.112;8.648;2023-04-20T01:59:27;100971.16;;;5.71;72.93
72262;BME280;60173;52.112;8.648;2023-04-20T02:01:53;100965.03;;;5.54;73.68
72262;BME280;60173;52.112;8.648;2023-04-20T02:04:20;100974.81;;;5.87;73.17
72262;BME280;60173;52.112;8.648;2023-04-20T02:06:46;100972.47;;;5.69;73.60
72262;BME280;60173;52.112;8.648;2023-04-20T02:09:13;100964.81;;;5.82;72.77
72262;BME280;60173;52.112;8.648;2023-04-20T02:11:39;100967.16;;;5.52;73.94
72262;BME280;60173;52.112;8.648;2023-04-20T02:14:05;100965.97;;;5.42;74.41
72262;BME280;60173;52.112;8.648;2023-04-20T02:16:32;100968.28;;;5.34;74.68
72262;BME280;60173;52.112;8.648;2023-04-20T02:18:58;100969.69;;;5.36;74.94
72262;BME280;60173;52.112;8.648;2023-04-20T02:21:24;100955.53;;;5.24;75.47
72262;BME280;60173;52.112;8.648;2023-04-20T02:23:51;100963.22;;;5.37;74.80
72262;BME280;60173;52.112;8.648;2023-04-20T02:26:17;100957.22;;;5.30;75.19
72262;BME280;60173;52.112;8.648;2023-04-20T02:28:43;100953.72;;;5.30;75.30
72262;BME280;60173;52.112;8.648;2023-04-20T02:31:10;100954.25;;;5.32;75.41
72262;BME280;60173;52.112;8.648;2023-04-20T02:33:36;100954.75;;;5.29;75.50
72262;BME280;60173;52.112;8.648;2023-04-20T02:36:03;100951.53;;;5.27;75.68
72262;BME280;60173;52.112;8.648;2023-04-20T02:38:29;100944.06;;;5.34;75.50
72262;BME280;60173;52.112;8.648;2023-04-20T02:40:55;100957.41;;;5.46;75.07
72262;BME280;60173;52.112;8.648;2023-04-20T02:43:22;100953.88;;;5.23;75.80
72262;BME280;60173;52.112;8.648;2023-04-20T02:45:48;100946.00;;;5.38;75.65
72262;BME280;60173;52.112;8.648;2023-04-20T02:48:14;100943.53;;;5.15;76.06
72262;BME280;60173;52.112;8.648;2023-04-20T02:50:41;100945.69;;;5.13;76.57
72262;BME280;60173;52.112;8.648;2023-04-20T02:53:08;100941.81;;;5.48;75.70
72262;BME280;60173;52.112;8.648;2023-04-20T02:55:34;100942.44;;;5.11;76.70
72262;BME280;60173;52.112;8.648;2023-04-20T02:58:01;100943.75;;;5.30;76.17
72262;BME280;60173;52.112;8.648;2023-04-20T03:00:27;100943.06;;;5.18;76.79
72262;BME280;60173;52.112;8.648;2023-04-20T03:02:53;100947.97;;;5.21;76.54
72262;BME280;60173;52.112;8.648;2023-04-20T03:05:20;100941.34;;;5.12;77.01
72262;BME280;60173;52.112;8.648;2023-04-20T03:07:46;100942.00;;;5.41;76.83
72262;BME280;60173;52.112;8.648;2023-04-20T03:10:13;100932.78;;;5.15;77.05
72262;BME280;60173;52.112;8.648;2023-04-20T03:12:39;100925.75;;;5.14;77.60
72262;BME280;60173;52.112;8.648;2023-04-20T03:15:06;100929.47;;;5.30;77.14
72262;BME280;60173;52.112;8.648;2023-04-20T03:17:32;100922.47;;;5.07;78.67
72262;BME280;60173;52.112;8.648;2023-04-20T03:19:59;100925.50;;;4.93;78.85
72262;BME280;60173;52.112;8.648;2023-04-20T03:22:25;100924.69;;;4.93;79.31
72262;BME280;60173;52.112;8.648;2023-04-20T03:24:51;100927.13;;;4.94;79.31
72262;BME280;60173;52.112;8.648;2023-04-20T03:27:18;100919.81;;;4.90;79.76
72262;BME280;60173;52.112;8.648;2023-04-20T03:29:45;100922.19;;;4.86;79.65
72262;BME280;60173;52.112;8.648;2023-04-20T03:32:11;100924.22;;;4.79;80.46
72262;BME280;60173;52.112;8.648;2023-04-20T03:34:37;100914.47;;;4.73;80.68
72262;BME280;60173;52.112;8.648;2023-04-20T03:37:04;100913.00;;;4.65;81.14
72262;BME280;60173;52.112;8.648;2023-04-20T03:39:30;100905.28;;;4.91;80.44
72262;BME280;60173;52.112;8.648;2023-04-20T03:41:56;100902.47;;;4.81;81.11
72262;BME280;60173;52.112;8.648;2023-04-20T03:44:23;100902.00;;;4.67;81.36
72262;BME280;60173;52.112;8.648;2023-04-20T03:46:49;100900.03;;;4.62;81.72
72262;BME280;60173;52.112;8.648;2023-04-20T03:49:15;100897.19;;;4.69;81.69
72262;BME280;60173;52.112;8.648;2023-04-20T03:51:42;100894.94;;;4.61;81.84
72262;BME280;60173;52.112;8.648;2023-04-20T03:54:09;100895.16;;;4.59;82.05
72262;BME280;60173;52.112;8.648;2023-04-20T03:56:35;100898.75;;;4.65;82.32
72262;BME280;60173;52.112;8.648;2023-04-20T03:59:01;100897.53;;;4.56;82.49
72262;BME280;60173;52.112;8.648;2023-04-20T04:01:28;100906.09;;;4.52;83.49
72262;BME280;60173;52.112;8.648;2023-04-20T04:03:54;100907.22;;;4.57;83.30
72262;BME280;60173;52.112;8.648;2023-04-20T04:06:21;100913.75;;;4.61;82.87
72262;BME280;60173;52.112;8.648;2023-04-20T04:08:47;100914.00;;;4.42;83.97
72262;BME280;60173;52.112;8.648;2023-04-20T04:11:13;100918.88;;;4.45;84.07
72262;BME280;60173;52.112;8.648;2023-04-20T04:13:39;100918.06;;;4.62;83.82
72262;BME280;60173;52.112;8.648;2023-04-20T04:16:06;100920.53;;;4.46;84.02
72262;BME280;60173;52.112;8.648;2023-04-20T04:18:32;100928.00;;;4.78;83.16
72262;BME280;60173;52.112;8.648;2023-04-20T04:20:59;100921.56;;;4.62;83.55
72262;BME280;60173;52.112;8.648;2023-04-20T04:23:25;100932.91;;;4.64;83.56
72262;BME280;60173;52.112;8.648;2023-04-20T04:25:51;100932.50;;;4.72;83.53
72262;BME280;60173;52.112;8.648;2023-04-20T04:28:18;100921.91;;;4.66;84.10
72262;BME280;60173;52.112;8.648;2023-04-20T04:30:45;100925.34;;;4.44;84.94
72262;BME280;60173;52.112;8.648;2023-04-20T04:33:11;100929.81;;;4.56;84.59
72262;BME280;60173;52.112;8.648;2023-04-20T04:35:37;100920.84;;;4.50;85.09
72262;BME280;60173;52.112;8.648;2023-04-20T04:38:04;100924.22;;;4.79;84.32
72262;BME280;60173;52.112;8.648;2023-04-20T04:40:30;100923.13;;;4.75;84.07
72262;BME280;60173;52.112;8.648;2023-04-20T04:42:56;100923.94;;;4.59;84.61
72262;BME280;60173;52.112;8.648;2023-04-20T04:45:23;100917.03;;;4.46;85.73
72262;BME280;60173;52.112;8.648;2023-04-20T04:47:49;100915.34;;;4.40;86.19
72262;BME280;60173;52.112;8.648;2023-04-20T04:50:15;100921.13;;;4.48;85.91
72262;BME280;60173;52.112;8.648;2023-04-20T04:52:42;100933.41;;;4.44;86.39
72262;BME280;60173;52.112;8.648;2023-04-20T04:55:08;100923.44;;;4.62;85.99
72262;BME280;60173;52.112;8.648;2023-04-20T04:57:35;100930.75;;;4.83;84.80
72262;BME280;60173;52.112;8.648;2023-04-20T05:00:01;100930.53;;;4.68;85.69
72262;BME280;60173;52.112;8.648;2023-04-20T05:02:28;100937.28;;;4.70;85.88
72262;BME280;60173;52.112;8.648;2023-04-20T05:04:54;100933.31;;;4.73;85.99
72262;BME280;60173;52.112;8.648;2023-04-20T05:07:21;100929.81;;;4.72;85.75
72262;BME280;60173;52.112;8.648;2023-04-20T05:09:47;100929.78;;;4.89;84.62
72262;BME280;60173;52.112;8.648;2023-04-20T05:12:13;100932.28;;;4.57;85.85
72262;BME280;60173;52.112;8.648;2023-04-20T05:14:40;100941.88;;;4.53;85.92
72262;BME280;60173;52.112;8.648;2023-04-20T05:17:06;100934.88;;;4.52;86.45
72262;BME280;60173;52.112;8.648;2023-04-20T05:19:32;100940.00;;;4.53;86.23
72262;BME280;60173;52.112;8.648;2023-04-20T05:21:59;100937.81;;;4.50;86.67
72262;BME280;60173;52.112;8.648;2023-04-20T05:24:25;100932.66;;;4.66;85.81
72262;BME280;60173;52.112;8.648;2023-04-20T05:26:52;100932.72;;;4.71;85.60
72262;BME280;60173;52.112;8.648;2023-04-20T05:29:18;100933.56;;;4.55;86.48
72262;BME280;60173;52.112;8.648;2023-04-20T05:31:45;100936.09;;;4.44;87.13
72262;BME280;60173;52.112;8.648;2023-04-20T05:34:11;100936.41;;;4.65;86.16
72262;BME280;60173;52.112;8.648;2023-04-20T05:36:38;100942.53;;;4.60;86.05
72262;BME280;60173;52.112;8.648;2023-04-20T05:39:05;100942.53;;;4.60;86.53
72262;BME280;60173;52.112;8.648;2023-04-20T05:41:31;100938.69;;;4.73;85.99
72262;BME280;60173;52.112;8.648;2023-04-20T05:43:58;100942.84;;;4.81;86.07
72262;BME280;60173;52.112;8.648;2023-04-20T05:46:24;100941.66;;;4.93;85.25
72262;BME280;60173;52.112;8.648;2023-04-20T05:48:50;100942.19;;;4.57;86.50
72262;BME280;60173;52.112;8.648;2023-04-20T05:51:17;100947.84;;;4.55;87.02
72262;BME280;60173;52.112;8.648;2023-04-20T05:53:43;100949.69;;;4.71;86.77
72262;BME280;60173;52.112;8.648;2023-04-20T05:56:09;100944.47;;;4.65;87.15
72262;BME280;60173;52.112;8.648;2023-04-20T05:58:36;100942.78;;;4.59;87.18
72262;BME280;60173;52.112;8.648;2023-04-20T06:01:03;100937.66;;;4.57;87.17
72262;BME280;60173;52.112;8.648;2023-04-20T06:03:30;100939.44;;;4.51;87.49
72262;BME280;60173;52.112;8.648;2023-04-20T06:05:56;100938.88;;;4.88;86.27
72262;BME280;60173;52.112;8.648;2023-04-20T06:08:23;100930.28;;;4.69;86.53
72262;BME280;60173;52.112;8.648;2023-04-20T06:10:55;100939.88;;;4.82;86.61
72262;BME280;60173;52.112;8.648;2023-04-20T06:13:22;100948.66;;;4.94;85.86
72262;BME280;60173;52.112;8.648;2023-04-20T06:15:48;100941.56;;;4.88;85.87
72262;BME280;60173;52.112;8.648;2023-04-20T06:18:15;100946.91;;;4.83;86.38
72262;BME280;60173;52.112;8.648;2023-04-20T06:20:42;100952.28;;;4.83;85.63
72262;BME280;60173;52.112;8.648;2023-04-20T06:23:09;100945.06;;;4.67;86.55
72262;BME280;60173;52.112;8.648;2023-04-20T06:25:35;100944.28;;;4.88;86.46
72262;BME280;60173;52.112;8.648;2023-04-20T06:28:02;100937.13;;;4.77;86.61
72262;BME280;60173;52.112;8.648;2023-04-20T06:30:29;100950.53;;;4.72;86.11
72262;BME280;60173;52.112;8.648;2023-04-20T06:32:55;100942.50;;;4.77;86.06
72262;BME280;60173;52.112;8.648;2023-04-20T06:35:22;100953.53;;;4.75;86.25
72262;BME280;60173;52.112;8.648;2023-04-20T06:37:48;100950.03;;;4.75;86.50
72262;BME280;60173;52.112;8.648;2023-04-20T06:40:14;100957.50;;;4.90;85.80
72262;BME280;60173;52.112;8.648;2023-04-20T06:42:41;100949.16;;;4.91;85.63
72262;BME280;60173;52.112;8.648;2023-04-20T06:45:08;100950.13;;;5.02;84.76
72262;BME280;60173;52.112;8.648;2023-04-20T06:47:34;100950.91;;;4.81;85.58
72262;BME280;60173;52.112;8.648;2023-04-20T06:50:02;100944.72;;;5.02;85.05
72262;BME280;60173;52.112;8.648;2023-04-20T06:52:29;100949.06;;;5.25;83.95
72262;BME280;60173;52.112;8.648;2023-04-20T06:54:57;100949.94;;;5.09;83.78
72262;BME280;60173;52.112;8.648;2023-04-20T06:57:23;100943.09;;;5.23;83.78
72262;BME280;60173;52.112;8.648;2023-04-20T06:59:49;100948.44;;;5.62;83.45
72262;BME280;60173;52.112;8.648;2023-04-20T07:02:16;100941.38;;;5.34;83.11
72262;BME280;60173;52.112;8.648;2023-04-20T07:04:42;100938.53;;;5.46;83.85
72262;BME280;60173;52.112;8.648;2023-04-20T07:07:09;100938.97;;;5.37;83.26
72262;BME280;60173;52.112;8.648;2023-04-20T07:09:35;100944.19;;;5.22;84.63
72262;BME280;60173;52.112;8.648;2023-04-20T07:12:01;100935.41;;;5.32;84.01
72262;BME280;60173;52.112;8.648;2023-04-20T07:14:28;100949.44;;;5.12;84.93
72262;BME280;60173;52.112;8.648;2023-04-20T07:16:54;100942.56;;;5.21;84.63
72262;BME280;60173;52.112;8.648;2023-04-20T07:19:21;100943.53;;;5.15;84.22
72262;BME280;60173;52.112;8.648;2023-04-20T07:21:47;100932.56;;;5.43;84.86
72262;BME280;60173;52.112;8.648;2023-04-20T07:24:13;100936.13;;;5.71;81.96
72262;BME280;60173;52.112;8.648;2023-04-20T07:26:40;100932.25;;;5.62;82.34
72262;BME280;60173;52.112;8.648;2023-04-20T07:29:06;100932.25;;;5.62;82.65
72262;BME280;60173;52.112;8.648;2023-04-20T07:31:32;100934.56;;;6.02;80.89
72262;BME280;60173;52.112;8.648;2023-04-20T07:34:00;100929.22;;;6.07;81.67
72262;BME280;60173;52.112;8.648;2023-04-20T07:36:27;100930.44;;;5.95;80.56
72262;BME280;60173;52.112;8.648;2023-04-20T07:38:53;100919.84;;;6.15;80.94
72262;BME280;60173;52.112;8.648;2023-04-20T07:41:19;100921.13;;;6.07;80.54
72262;BME280;60173;52.112;8.648;2023-04-20T07:43:46;100919.44;;;5.74;81.50
72262;BME280;60173;52.112;8.648;2023-04-20T07:46:21;100925.63;;;5.97;80.51
72262;BME280;60173;52.112;8.648;2023-04-20T07:48:48;100926.56;;;5.85;81.41
72262;BME280;60173;52.112;8.648;2023-04-20T07:51:14;100942.56;;;6.24;79.49
72262;BME280;60173;52.112;8.648;2023-04-20T07:53:41;100943.19;;;6.31;78.27
72262;BME280;60173;52.112;8.648;2023-04-20T07:56:07;100943.13;;;6.26;77.09
72262;BME280;60173;52.112;8.648;2023-04-20T07:58:34;100941.72;;;6.19;77.48
72262;BME280;60173;52.112;8.648;2023-04-20T08:01:00;100936.66;;;6.22;77.82
72262;BME280;60173;52.112;8.648;2023-04-20T08:03:26;100937.72;;;6.59;76.36
72262;BME280;60173;52.112;8.648;2023-04-20T08:05:53;100935.25;;;6.52;75.66
72262;BME280;60173;52.112;8.648;2023-04-20T08:08:19;100937.97;;;7.05;74.00
72262;BME280;60173;52.112;8.648;2023-04-20T08:10:46;100942.09;;;7.17;73.35
72262;BME280;60173;52.112;8.648;2023-04-20T08:13:12;100946.53;;;7.44;72.87
72262;BME280;60173;52.112;8.648;2023-04-20T08:15:38;100934.66;;;7.50;71.60
72262;BME280;60173;52.112;8.648;2023-04-20T08:18:05;100936.09;;;7.05;72.65
72262;BME280;60173;52.112;8.648;2023-04-20T08:20:31;100936.41;;;8.02;69.15
72262;BME280;60173;52.112;8.648;2023-04-20T08:22:58;100927.50;;;8.48;66.87
72262;BME280;60173;52.112;8.648;2023-04-20T08:25:25;100928.84;;;8.40;66.61
72262;BME280;60173;52.112;8.648;2023-04-20T08:27:52;100927.94;;;7.63;68.76
72262;BME280;60173;52.112;8.648;2023-04-20T08:30:18;100946.38;;;8.07;67.35
72262;BME280;60173;52.112;8.648;2023-04-20T08:32:45;100939.91;;;8.18;68.22
72262;BME280;60173;52.112;8.648;2023-04-20T08:35:11;100939.13;;;8.28;66.22
72262;BME280;60173;52.112;8.648;2023-04-20T08:37:38;100945.59;;;8.11;65.47
72262;BME280;60173;52.112;8.648;2023-04-20T08:40:04;100935.03;;;8.35;65.01
72262;BME280;60173;52.112;8.648;2023-04-20T08:42:31;100933.16;;;8.41;64.46
72262;BME280;60173;52.112;8.648;2023-04-20T08:44:57;100944.53;;;8.58;63.17
72262;BME280;60173;52.112;8.648;2023-04-20T08:47:24;100935.84;;;8.67;63.05
72262;BME280;60173;52.112;8.648;2023-04-20T08:49:53;100936.97;;;8.45;64.04
72262;BME280;60173;52.112;8.648;2023-04-20T08:52:19;100934.28;;;8.45;64.11
72262;BME280;60173;52.112;8.648;2023-04-20T08:54:45;100934.78;;;8.57;63.07
72262;BME280;60173;52.112;8.648;2023-04-20T08:57:22;100928.94;;;9.75;61.49
72262;BME280;60173;52.112;8.648;2023-04-20T08:59:48;100931.34;;;9.32;60.53
72262;BME280;60173;52.112;8.648;2023-04-20T09:02:15;100933.13;;;9.52;60.29
72262;BME280;60173;52.112;8.648;2023-04-20T09:04:41;100944.97;;;9.01;60.97
72262;BME280;60173;52.112;8.648;2023-04-20T09:07:18;100929.50;;;9.72;59.46
72262;BME280;60173;52.112;8.648;2023-04-20T09:09:59;100938.81;;;9.95;59.26
72262;BME280;60173;52.112;8.648;2023-04-20T09:12:27;100945.44;;;9.84;58.49
72262;BME280;60173;52.112;8.648;2023-04-20T09:14:54;100938.75;;;9.66;58.93
72262;BME280;60173;52.112;8.648;2023-04-20T09:17:31;100933.75;;;9.34;58.70
72262;BME280;60173;52.112;8.648;2023-04-20T09:19:58;100942.31;;;8.91;60.32
72262;BME280;60173;52.112;8.648;2023-04-20T09:22:32;100947.53;;;9.42;58.67
72262;BME280;60173;52.112;8.648;2023-04-20T09:24:59;100936.09;;;8.75;59.64
72262;BME280;60173;52.112;8.648;2023-04-20T09:27:26;100942.28;;;9.01;59.61
72262;BME280;60173;52.112;8.648;2023-04-20T09:30:00;100948.53;;;8.92;58.61
72262;BME280;60173;52.112;8.648;2023-04-20T09:32:27;100939.50;;;9.17;58.28
72262;BME280;60173;52.112;8.648;2023-04-20T09:34:53;100949.03;;;9.04;59.21
72262;BME280;60173;52.112;8.648;2023-04-20T09:37:20;100946.13;;;8.75;60.55
72262;BME280;60173;52.112;8.648;2023-04-20T09:39:46;100943.66;;;9.59;59.63
72262;BME280;60173;52.112;8.648;2023-04-20T09:42:14;100944.22;;;9.61;58.02
72262;BME280;60173;52.112;8.648;2023-04-20T09:44:41;100944.94;;;9.17;59.19
72262;BME280;60173;52.112;8.648;2023-04-20T09:47:16;100945.00;;;8.96;59.13
72262;BME280;60173;52.112;8.648;2023-04-20T09:49:43;100941.06;;;9.33;58.21
72262;BME280;60173;52.112;8.648;2023-04-20T09:52:10;100937.78;;;9.46;59.36
72262;BME280;60173;52.112;8.648;2023-04-20T09:54:38;100940.03;;;9.24;59.23
72262;BME280;60173;52.112;8.648;2023-04-20T09:57:04;100937.97;;;8.95;61.39
72262;BME280;60173;52.112;8.648;2023-04-20T09:59:32;100944.00;;;9.52;59.40
72262;BME280;60173;52.112;8.648;2023-04-20T10:01:58;100946.50;;;9.33;60.53
72262;BME280;60173;52.112;8.648;2023-04-20T10:04:25;100943.63;;;9.04;60.90
72262;BME280;60173;52.112;8.648;2023-04-20T10:06:53;100945.28;;;8.90;61.31
72262;BME280;60173;52.112;8.648;2023-04-20T10:09:24;100943.97;;;8.77;61.18
72262;BME280;60173;52.112;8.648;2023-04-20T10:11:51;100943.97;;;8.62;62.09
72262;BME280;60173;52.112;8.648;2023-04-20T10:14:25;100942.88;;;8.88;61.09
72262;BME280;60173;52.112;8.648;2023-04-20T10:16:59;100945.16;;;9.25;60.70
72262;BME280;60173;52.112;8.648;2023-04-20T10:19:43;100943.78;;;9.38;60.24
72262;BME280;60173;52.112;8.648;2023-04-20T10:22:24;100939.84;;;9.60;58.19
72262;BME280;60173;52.112;8.648;2023-04-20T10:24:51;100944.91;;;9.27;59.10
72262;BME280;60173;52.112;8.648;2023-04-20T10:27:19;100941.94;;;9.78;58.84
72262;BME280;60173;52.112;8.648;2023-04-20T10:29:46;100951.34;;;9.46;59.02
72262;BME280;60173;52.112;8.648;2023-04-20T10:32:22;100942.44;;;9.25;58.67
72262;BME280;60173;52.112;8.648;2023-04-20T10:35:05;100938.19;;;9.09;59.74
72262;BME280;60173;52.112;8.648;2023-04-20T10:37:32;100939.03;;;10.04;57.81
72262;BME280;60173;52.112;8.648;2023-04-20T10:39:59;100928.50;;;9.58;58.63
72262;BME280;60173;52.112;8.648;2023-04-20T10:42:25;100933.47;;;9.85;58.39
72262;BME280;60173;52.112;8.648;2023-04-20T10:44:52;100931.66;;;10.49;56.44
72262;BME280;60173;52.112;8.648;2023-04-20T10:47:27;100928.41;;;10.47;56.37
72262;BME280;60173;52.112;8.648;2023-04-20T10:49:54;100924.66;;;10.96;56.52
72262;BME280;60173;52.112;8.648;2023-04-20T10:52:33;100925.88;;;11.08;54.62
72262;BME280;60173;52.112;8.648;2023-04-20T10:55:01;100926.19;;;10.54;54.94
72262;BME280;60173;52.112;8.648;2023-04-20T10:57:27;100921.41;;;9.67;58.24
72262;BME280;60173;52.112;8.648;2023-04-20T10:59:53;100912.34;;;9.82;57.59
72262;BME280;60173;52.112;8.648;2023-04-20T11:02:20;100917.53;;;9.78;58.23
72262;BME280;60173;52.112;8.648;2023-04-20T11:04:46;100916.16;;;10.15;59.23
72262;BME280;60173;52.112;8.648;2023-04-20T11:07:13;100925.78;;;10.66;57.29
72262;BME280;60173;52.112;8.648;2023-04-20T11:09:39;100909.19;;;10.04;57.51
72262;BME280;60173;52.112;8.648;2023-04-20T11:12:07;100902.00;;;9.44;58.17
72262;BME280;60173;52.112;8.648;2023-04-20T11:14:36;100901.66;;;9.51;57.84
72262;BME280;60173;52.112;8.648;2023-04-20T11:17:04;100900.13;;;9.84;56.43
72262;BME280;60173;52.112;8.648;2023-04-20T11:19:33;100894.69;;;9.84;57.30
72262;BME280;60173;52.112;8.648;2023-04-20T11:22:01;100898.59;;;9.68;56.53
72262;BME280;60173;52.112;8.648;2023-04-20T11:24:29;100904.97;;;9.87;55.78
72262;BME280;60173;52.112;8.648;2023-04-20T11:26:56;100909.78;;;9.56;56.52
72262;BME280;60173;52.112;8.648;2023-04-20T11:32:06;100904.31;;;9.66;58.16
72262;BME280;60173;52.112;8.648;2023-04-20T11:34:35;100908.50;;;10.22;57.05
72262;BME280;60173;52.112;8.648;2023-04-20T11:37:10;100909.75;;;9.66;56.90
72262;BME280;60173;52.112;8.648;2023-04-20T11:39:36;100907.00;;;10.06;56.86
72262;BME280;60173;52.112;8.648;2023-04-20T11:42:03;100916.34;;;10.24;56.83
72262;BME280;60173;52.112;8.648;2023-04-20T11:44:30;100888.25;;;9.75;57.86
72262;BME280;60173;52.112;8.648;2023-04-20T11:46:56;100903.03;;;9.93;57.07
72262;BME280;60173;52.112;8.648;2023-04-20T11:49:24;100897.22;;;10.10;55.49
72262;BME280;60173;52.112;8.648;2023-04-20T11:51:50;100890.28;;;9.93;56.23
72262;BME280;60173;52.112;8.648;2023-04-20T11:54:17;100903.03;;;9.48;57.39
72262;BME280;60173;52.112;8.648;2023-04-20T11:56:44;100887.72;;;9.73;57.57
72262;BME280;60173;52.112;8.648;2023-04-20T11:59:11;100895.50;;;9.85;55.66
72262;BME280;60173;52.112;8.648;2023-04-20T12:01:37;100889.28;;;9.84;55.47
72262;BME280;60173;52.112;8.648;2023-04-20T12:04:04;100886.16;;;10.01;54.88
72262;BME280;60173;52.112;8.648;2023-04-20T12:06:31;100884.47;;;10.45;53.90
72262;BME280;60173;52.112;8.648;2023-04-20T12:08:58;100876.06;;;10.41;53.50
72262;BME280;60173;52.112;8.648;2023-04-20T12:11:24;100886.53;;;9.89;55.50
72262;BME280;60173;52.112;8.648;2023-04-20T12:13:51;100882.88;;;10.04;55.98
72262;BME280;60173;52.112;8.648;2023-04-20T12:16:17;100885.03;;;9.68;55.89
72262;BME280;60173;52.112;8.648;2023-04-20T12:18:44;100883.91;;;9.74;56.07
72262;BME280;60173;52.112;8.648;2023-04-20T12:21:10;100880.22;;;10.33;54.12
72262;BME280;60173;52.112;8.648;2023-04-20T12:23:36;100880.06;;;10.14;54.25
72262;BME280;60173;52.112;8.648;2023-04-20T12:26:04;100878.91;;;9.91;54.88
72262;BME280;60173;52.112;8.648;2023-04-20T12:28:31;100871.53;;;9.97;54.13
72262;BME280;60173;52.112;8.648;2023-04-20T12:30:58;100866.91;;;10.32;52.89
72262;BME280;60173;52.112;8.648;2023-04-20T12:33:24;100870.53;;;10.75;53.14
72262;BME280;60173;52.112;8.648;2023-04-20T12:35:50;100873.97;;;11.05;52.61
72262;BME280;60173;52.112;8.648;2023-04-20T12:38:17;100859.63;;;11.23;53.26
72262;BME280;60173;52.112;8.648;2023-04-20T12:40:43;100876.19;;;10.79;53.66
72262;BME280;60173;52.112;8.648;2023-04-20T12:43:09;100868.34;;;10.53;52.94
72262;BME280;60173;52.112;8.648;2023-04-20T12:45:36;100880.41;;;11.14;52.71
72262;BME280;60173;52.112;8.648;2023-04-20T12:48:02;100872.13;;;11.62;51.65
72262;BME280;60173;52.112;8.648;2023-04-20T12:50:29;100875.28;;;10.89;52.38
72262;BME280;60173;52.112;8.648;2023-04-20T12:52:55;100861.56;;;9.87;54.02
72262;BME280;60173;52.112;8.648;2023-04-20T12:55:22;100879.44;;;10.28;54.11
72262;BME280;60173;52.112;8.648;2023-04-20T12:57:48;100889.06;;;10.44;54.32
72262;BME280;60173;52.112;8.648;2023-04-20T13:00:14;100880.47;;;10.61;54.03
72262;BME280;60173;52.112;8.648;2023-04-20T13:02:41;100886.78;;;10.80;53.22